»·PEaware :: UAL1928 KSAN-KABQ

UAL1928 :: KSAN-KABQ

FLIGHT INFORMATION

Flight Status: Arrived
Operator:
United Airlines
More flights by this operator :: More flights under this callsign
Pilot: Chris C. (10181)
Aircraft: BOEING 737-200
(B732)
More flights by this aircraft type
Origin: KSAN San Diego Intl-Lindbergh
United States
Destination: KABQ Albuquerque Intl Sunport
United States
More flights between these airports :: More routes between these airports
Route: +BRDR7 JLI V460 BLH J65 PXR J18 SJN LAVAN3
File this flight plan on PilotEdge
Remarks:
Altitude:
(Current/Filed)
31,000ft
Speed:
(Current/Filed)
480kts
Departed: 08-Dec-19 11:15 AM
Arrived: 08-Dec-19 12:48 PM
Distance/Time
Traveled:
545nm/1:33
Distance/Time
To Go:
Arrived

Flight Plot

Page will automatically refresh every two minutes.

Flight plan parsing failed; only flown route is shown


Map Options




Map Legend


Flown Route
Filed Route
Departure Airport
Arrival Airport
Navaid (VOR, NDB)
Fix

Horizontal Profiles

Position Reports

Time Latitude Longitude Heading Altitude Ground
Speed
08-Dec-19 10:22 32.733231 -117.196057 200 22ft 0kts
08-Dec-19 10:23 32.733231 -117.196057 200 22ft 0kts
08-Dec-19 10:24 32.733231 -117.196057 200 22ft 0kts
08-Dec-19 10:25 32.733231 -117.196057 200 22ft 0kts
08-Dec-19 10:26 32.733231 -117.196057 200 22ft 0kts
08-Dec-19 10:27 32.733231 -117.196057 200 22ft 0kts
08-Dec-19 10:28 32.733231 -117.196057 200 22ft 0kts
08-Dec-19 10:29 32.733231 -117.196057 200 22ft 0kts
08-Dec-19 10:30 32.733231 -117.196057 200 22ft 0kts
08-Dec-19 10:31 32.733231 -117.196057 200 22ft 0kts
08-Dec-19 10:32 32.733231 -117.196057 200 22ft 0kts
08-Dec-19 10:34 32.733231 -117.196057 200 22ft 0kts
08-Dec-19 10:35 32.733231 -117.196057 200 22ft 0kts
08-Dec-19 10:36 32.733231 -117.196057 200 22ft 0kts
08-Dec-19 10:37 32.733231 -117.196057 199 21ft 0kts
08-Dec-19 10:38 32.733231 -117.196057 199 21ft 0kts
08-Dec-19 10:39 32.733231 -117.196057 199 21ft 0kts
08-Dec-19 10:40 32.733231 -117.196057 199 21ft 0kts
08-Dec-19 10:41 32.733231 -117.196057 199 21ft 0kts
08-Dec-19 10:42 32.733231 -117.196057 199 21ft 0kts
08-Dec-19 10:43 32.733231 -117.196057 199 21ft 0kts
08-Dec-19 10:44 32.733231 -117.196057 199 21ft 0kts
08-Dec-19 10:45 32.733231 -117.196057 199 21ft 0kts
08-Dec-19 10:46 32.733231 -117.196057 199 21ft 0kts
08-Dec-19 10:47 32.733231 -117.196057 199 21ft 0kts
08-Dec-19 10:48 32.733231 -117.196057 199 21ft 0kts
08-Dec-19 10:49 32.733231 -117.196057 199 21ft 0kts
08-Dec-19 10:50 32.733231 -117.196057 199 21ft 0kts
08-Dec-19 10:51 32.733231 -117.196057 199 21ft 0kts
08-Dec-19 10:52 32.733231 -117.196057 199 21ft 0kts
08-Dec-19 10:53 32.733231 -117.196057 199 21ft 0kts
08-Dec-19 10:53 32.733231 -117.196057 199 21ft 0kts
08-Dec-19 10:55 32.733231 -117.196057 199 21ft 0kts
08-Dec-19 10:56 32.733231 -117.196057 199 21ft 0kts
08-Dec-19 10:56 32.733231 -117.196057 199 21ft 0kts
08-Dec-19 10:57 32.733231 -117.196057 199 21ft 0kts
08-Dec-19 10:59 32.733231 -117.196057 199 21ft 0kts
08-Dec-19 10:59 32.733231 -117.196057 199 21ft 0kts
08-Dec-19 11:00 32.733230 -117.196057 200 22ft 0kts
08-Dec-19 11:01 32.733752 -117.196009 161 22ft 2kts
08-Dec-19 11:02 32.734168 -117.196479 110 21ft 2kts
08-Dec-19 11:03 32.734191 -117.196565 105 21ft 0kts
08-Dec-19 11:04 32.734191 -117.196564 105 21ft 0kts
08-Dec-19 11:05 32.734191 -117.196564 105 21ft 0kts
08-Dec-19 11:06 32.734190 -117.196560 105 21ft 1kts
08-Dec-19 11:07 32.733603 -117.194131 107 22ft 10kts
08-Dec-19 11:08 32.732696 -117.190374 106 22ft 15kts
08-Dec-19 11:09 32.731245 -117.184446 106 22ft 18kts
08-Dec-19 11:10 32.729907 -117.178810 105 23ft 16kts
08-Dec-19 11:11 32.729521 -117.176650 69 24ft 0kts
08-Dec-19 11:12 32.729521 -117.176650 69 24ft 0kts
08-Dec-19 11:13 32.730487 -117.177025 285 24ft 30kts
08-Dec-19 11:14 32.740149 -117.217472 285 1111ft 173kts
08-Dec-19 11:15 32.754394 -117.281276 286 3503ft 220kts
08-Dec-19 11:16 32.730344 -117.331396 159 5678ft 255kts
08-Dec-19 11:17 32.682361 -117.267219 136 9018ft 254kts
08-Dec-19 11:18 32.637483 -117.195801 131 10966ft 295kts
08-Dec-19 11:19 32.621856 -117.096506 98 13077ft 329kts
08-Dec-19 11:20 32.623149 -116.980892 59 14412ft 376kts
08-Dec-19 11:21 32.703535 -116.902555 29 16339ft 381kts
08-Dec-19 11:22 32.795744 -116.827791 25 17892ft 403kts
08-Dec-19 11:23 32.891622 -116.752509 27 19457ft 421kts
08-Dec-19 11:24 32.993240 -116.676622 20 20978ft 428kts
08-Dec-19 11:25 33.100039 -116.611903 17 22413ft 435kts
08-Dec-19 11:26 33.185269 -116.510113 56 23550ft 475kts
08-Dec-19 11:27 33.244140 -116.389436 50 24471ft 481kts
08-Dec-19 11:28 33.322587 -116.257430 49 25334ft 491kts
08-Dec-19 11:29 33.402323 -116.122710 50 26163ft 500kts
08-Dec-19 11:30 33.482361 -115.984437 50 26835ft 510kts
08-Dec-19 11:31 33.563487 -115.843815 50 27601ft 516kts
08-Dec-19 11:32 33.630688 -115.691004 82 28131ft 532kts
08-Dec-19 11:33 33.640271 -115.513623 91 28751ft 537kts
08-Dec-19 11:34 33.638091 -115.333580 95 29313ft 542kts
08-Dec-19 11:35 33.624380 -115.153545 102 29803ft 541kts
08-Dec-19 11:36 33.606810 -114.975567 101 30822ft 535kts
08-Dec-19 11:37 33.594085 -114.795665 93 31121ft 551kts
08-Dec-19 11:38 33.596191 -114.611182 93 31110ft 553kts
08-Dec-19 11:39 33.590921 -114.427545 102 31110ft 548kts
08-Dec-19 11:40 33.572579 -114.271395 105 31106ft 547kts
08-Dec-19 11:41 33.545851 -114.092691 106 31110ft 544kts
08-Dec-19 11:42 33.518768 -113.914073 106 31110ft 544kts
08-Dec-19 11:43 33.491670 -113.735881 106 31111ft 544kts
08-Dec-19 11:44 33.465750 -113.556758 105 31126ft 545kts
08-Dec-19 11:45 33.446382 -113.375640 100 31129ft 551kts
08-Dec-19 11:46 33.449752 -113.191949 81 31129ft 557kts
08-Dec-19 11:47 33.478838 -113.010124 80 31128ft 557kts
08-Dec-19 11:48 33.475463 -112.827416 99 31128ft 548kts
08-Dec-19 11:49 33.460662 -112.645648 100 31127ft 548kts
08-Dec-19 11:50 33.444021 -112.463690 100 31131ft 549kts
08-Dec-19 11:51 33.432947 -112.280989 93 31133ft 553kts
08-Dec-19 11:52 33.438636 -112.096625 89 31128ft 553kts
08-Dec-19 11:53 33.451905 -111.912138 71 31120ft 553kts
08-Dec-19 11:54 33.514135 -111.744410 61 31122ft 550kts
08-Dec-19 11:55 33.578699 -111.577066 61 31119ft 551kts
08-Dec-19 11:56 33.643441 -111.409055 61 31119ft 553kts
08-Dec-19 11:57 33.707790 -111.242359 62 31119ft 552kts
08-Dec-19 11:58 33.772607 -111.074987 61 31120ft 551kts
08-Dec-19 11:59 33.837030 -110.907637 61 31142ft 551kts
08-Dec-19 12:00 33.894413 -110.736154 65 31175ft 552kts
08-Dec-19 12:01 33.950458 -110.563529 65 31182ft 552kts
08-Dec-19 12:02 34.006444 -110.391338 65 31183ft 554kts
08-Dec-19 12:03 34.062946 -110.218763 65 31182ft 553kts
08-Dec-19 12:04 34.119581 -110.045479 65 31182ft 552kts
08-Dec-19 12:05 34.175946 -109.873179 65 31101ft 543kts
08-Dec-19 12:06 34.230614 -109.706630 65 29225ft 523kts
08-Dec-19 12:07 34.279648 -109.544207 71 27397ft 504kts
08-Dec-19 12:08 34.324632 -109.387006 63 25594ft 484kts
08-Dec-19 12:09 34.380633 -109.241125 61 24202ft 462kts
08-Dec-19 12:10 34.443451 -109.101351 67 24161ft 479kts
08-Dec-19 12:11 34.456170 -108.937640 87 24168ft 494kts
08-Dec-19 12:12 34.487695 -108.772439 70 24183ft 510kts
08-Dec-19 12:13 34.522772 -108.599713 74 24170ft 530kts
08-Dec-19 12:14 34.556104 -108.422661 76 24146ft 540kts
08-Dec-19 12:15 34.585195 -108.248322 77 24107ft 545kts
08-Dec-19 12:16 34.614880 -108.069960 76 23779ft 505kts
08-Dec-19 12:17 34.640932 -107.905330 78 21619ft 486kts
08-Dec-19 12:18 34.663159 -107.746397 78 19581ft 464kts
08-Dec-19 12:19 34.699282 -107.601527 54 17914ft 426kts
08-Dec-19 12:20 34.756338 -107.480147 56 16540ft 400kts
08-Dec-19 12:21 34.809890 -107.363552 56 15084ft 378kts
08-Dec-19 12:22 34.861789 -107.251200 56 15046ft 384kts
08-Dec-19 12:23 34.913282 -107.139527 56 15044ft 369kts
08-Dec-19 12:24 34.960811 -107.027125 61 15045ft 371kts
08-Dec-19 12:25 34.972659 -106.901229 88 15043ft 377kts
08-Dec-19 12:26 34.974781 -106.773542 88 14489ft 362kts
08-Dec-19 12:27 34.977389 -106.654988 88 13490ft 339kts
08-Dec-19 12:28 34.979902 -106.541911 87 12248ft 326kts
08-Dec-19 12:29 34.982745 -106.432730 88 10972ft 317kts
08-Dec-19 12:30 34.965165 -106.348427 152 10045ft 283kts
08-Dec-19 12:31 34.901009 -106.375601 227 10029ft 269kts
08-Dec-19 12:32 34.868730 -106.454523 274 10030ft 282kts
08-Dec-19 12:33 34.883464 -106.547479 278 10024ft 274kts
08-Dec-19 12:34 34.898633 -106.636778 278 10025ft 263kts
08-Dec-19 12:35 34.913253 -106.723759 278 10030ft 260kts
08-Dec-19 12:36 34.927909 -106.813619 278 10035ft 271kts
08-Dec-19 12:37 34.942348 -106.903823 278 8887ft 270kts
08-Dec-19 12:38 34.956724 -106.992745 278 8036ft 255kts
08-Dec-19 12:39 34.971223 -107.083042 278 8049ft 276kts
08-Dec-19 12:40 35.032089 -107.125207 23 8039ft 302kts
08-Dec-19 12:42 35.060981 -107.037733 87 8051ft 296kts
08-Dec-19 12:43 35.055905 -106.937435 107 8046ft 294kts
08-Dec-19 12:44 35.048744 -106.844135 91 7960ft 258kts
08-Dec-19 12:45 35.045129 -106.762288 81 7712ft 234kts
08-Dec-19 12:46 35.046827 -106.690288 100 6559ft 176kts
08-Dec-19 12:47 35.044626 -106.633616 94 5559ft 154kts
08-Dec-19 12:48 35.044774 -106.597059 58 5328ft 33kts
08-Dec-19 12:49 35.045812 -106.598689 264 5327ft 0kts

Navigation Log

Ident Type
Flight plan parsing failed, navigation log unavailable